Time;durP1;ratioP1;P1;durP2;ratioP2;P2;SDS_P1;SDS_P2;PMS_P1;PMS_P2;Temp;Humidity;BMP_temperature;BMP_pressure;BME280_temperature;BME280_humidity;BME280_pressure;Samples;Min_cycle;Max_cycle;Signal;HPM_P1;HPM_P2
2021/10/23 00:01:03;;;;;;;71.38;46.10;;;;;;;;;;5016098;28;20122;-42
2021/10/23 00:03:29;;;;;;;68.88;41.78;;;;;;;;;;5016767;28;20029;-45
2021/10/23 00:05:55;;;;;;;63.97;42.67;;;;;;;;;;5017002;28;20141;-43
2021/10/23 00:08:21;;;;;;;76.95;47.30;;;;;;;;;;5057372;28;20071;-43
2021/10/23 00:10:47;;;;;;;74.05;47.13;;;;;;;;;;5074237;28;20111;-44
2021/10/23 00:13:13;;;;;;;72.70;46.50;;;;;;;;;;5076177;28;20025;-45
2021/10/23 00:15:39;;;;;;;62.08;40.50;;;;;;;;;;5076222;28;20028;-44
2021/10/23 00:18:05;;;;;;;60.60;38.78;;;;;;;;;;5076180;28;20028;-44
2021/10/23 00:20:36;;;;;;;57.35;37.72;;;;;;;;;;5076087;28;20559;-44
2021/10/23 00:23:02;;;;;;;72.00;45.30;;;;;;;;;;5076176;28;20067;-44
2021/10/23 00:25:28;;;;;;;63.28;40.85;;;;;;;;;;5075579;28;20515;-44
2021/10/23 00:27:55;;;;;;;61.10;40.30;;;;;;;;;;5076218;28;20064;-44
2021/10/23 00:30:23;;;;;;;65.68;42.72;;;;;;;;;;5076014;28;20028;-44
2021/10/23 00:32:49;;;;;;;65.85;42.72;;;;;;;;;;5076190;28;20017;-43
2021/10/23 00:35:15;;;;;;;65.13;40.15;;;;;;;;;;5075898;28;20029;-44
2021/10/23 00:37:41;;;;;;;58.42;40.05;;;;;;;;;;5075667;28;20131;-44
2021/10/23 00:40:08;;;;;;;63.58;41.78;;;;;;;;;;5075770;28;20061;-44
2021/10/23 00:42:34;;;;;;;61.20;39.90;;;;;;;;;;5075692;28;20048;-44
2021/10/23 00:45:00;;;;;;;56.05;37.75;;;;;;;;;;5075820;28;20024;-44
2021/10/23 00:47:26;;;;;;;53.53;36.55;;;;;;;;;;5075720;28;20051;-44
2021/10/23 00:49:53;;;;;;;66.13;42.47;;;;;;;;;;5075493;28;20024;-44
2021/10/23 00:52:23;;;;;;;56.67;37.65;;;;;;;;;;5075491;28;20023;-44
2021/10/23 00:54:50;;;;;;;61.85;40.42;;;;;;;;;;5075559;28;20365;-44
2021/10/23 00:57:16;;;;;;;54.25;37.28;;;;;;;;;;5075296;28;20047;-44
2021/10/23 00:59:43;;;;;;;54.75;38.50;;;;;;;;;;5075283;28;20098;-44
2021/10/23 01:02:09;;;;;;;61.42;42.28;;;;;;;;;;5075387;28;20111;-44
2021/10/23 01:04:35;;;;;;;69.80;45.35;;;;;;;;;;5075291;28;20103;-44
2021/10/23 01:07:02;;;;;;;61.25;41.80;;;;;;;;;;5075312;28;20021;-44
2021/10/23 01:09:28;;;;;;;61.50;41.70;;;;;;;;;;5075184;28;20469;-44
2021/10/23 01:11:57;;;;;;;58.25;40.15;;;;;;;;;;5075277;28;20465;-43
2021/10/23 01:14:24;;;;;;;59.92;41.75;;;;;;;;;;5075115;28;20383;-43
2021/10/23 01:16:54;;;;;;;57.38;39.30;;;;;;;;;;5074098;28;20025;-44
2021/10/23 01:19:22;;;;;;;50.22;35.17;;;;;;;;;;5074680;28;20036;-43
2021/10/23 01:21:49;;;;;;;41.75;28.90;;;;;;;;;;5073984;28;20103;-43
2021/10/23 01:24:16;;;;;;;37.67;26.38;;;;;;;;;;5074730;28;20393;-44
2021/10/23 01:26:42;;;;;;;39.63;24.48;;;;;;;;;;5074757;28;20025;-43
2021/10/23 01:29:09;;;;;;;29.85;18.80;;;;;;;;;;5075077;28;20029;-44
2021/10/23 01:31:36;;;;;;;27.85;15.52;;;;;;;;;;5074900;28;20024;-43
2021/10/23 01:34:22;;;;;;;21.67;14.45;;;;;;;;;;5074778;28;20112;-43
2021/10/23 01:36:49;;;;;;;25.50;15.70;;;;;;;;;;5074702;28;20104;-43
2021/10/23 01:39:16;;;;;;;15.23;8.20;;;;;;;;;;5074738;28;20488;-44
2021/10/23 01:41:42;;;;;;;13.43;6.80;;;;;;;;;;5074754;28;20365;-43
2021/10/23 01:44:09;;;;;;;13.18;6.63;;;;;;;;;;5074507;28;20021;-43
2021/10/23 01:46:35;;;;;;;9.85;5.50;;;;;;;;;;5074786;28;20025;-43
2021/10/23 01:49:02;;;;;;;12.48;5.45;;;;;;;;;;5074348;28;20093;-43
2021/10/23 01:51:28;;;;;;;11.75;5.20;;;;;;;;;;5074308;28;20354;-44
2021/10/23 01:53:54;;;;;;;12.85;5.75;;;;;;;;;;5074125;28;20153;-43
2021/10/23 01:56:21;;;;;;;14.20;7.38;;;;;;;;;;5073050;28;20043;-43
2021/10/23 01:58:47;;;;;;;12.82;5.10;;;;;;;;;;5074114;28;20040;-43
2021/10/23 02:01:13;;;;;;;12.90;6.60;;;;;;;;;;5074229;28;20103;-44
2021/10/23 02:03:42;;;;;;;12.75;6.93;;;;;;;;;;5074088;28;20031;-44
2021/10/23 02:06:09;;;;;;;16.35;5.93;;;;;;;;;;5073919;28;20035;-43
2021/10/23 02:08:35;;;;;;;10.70;4.40;;;;;;;;;;5074261;28;20380;-43
2021/10/23 02:11:01;;;;;;;15.65;6.68;;;;;;;;;;5073997;28;20552;-42
2021/10/23 02:13:27;;;;;;;13.88;5.97;;;;;;;;;;5074065;28;20043;-44
2021/10/23 02:15:53;;;;;;;15.90;6.57;;;;;;;;;;5073964;28;20530;-43
2021/10/23 02:18:20;;;;;;;11.50;6.35;;;;;;;;;;5073684;28;20029;-42
2021/10/23 02:20:46;;;;;;;12.23;6.70;;;;;;;;;;5073820;28;20031;-42
2021/10/23 02:23:12;;;;;;;18.30;8.48;;;;;;;;;;5073681;28;20028;-43
2021/10/23 02:25:38;;;;;;;9.70;5.20;;;;;;;;;;5073498;28;20056;-42
2021/10/23 02:28:04;;;;;;;15.18;7.68;;;;;;;;;;5073878;28;20028;-42
2021/10/23 02:30:30;;;;;;;13.43;6.00;;;;;;;;;;5073786;28;20368;-42
2021/10/23 02:32:56;;;;;;;9.40;4.80;;;;;;;;;;5073473;28;20457;-42
2021/10/23 02:35:25;;;;;;;11.05;5.60;;;;;;;;;;5073610;28;20027;-43
2021/10/23 02:37:51;;;;;;;11.10;4.93;;;;;;;;;;5074066;28;20040;-43
2021/10/23 02:40:17;;;;;;;11.60;4.72;;;;;;;;;;5073746;28;20090;-43
2021/10/23 02:42:45;;;;;;;12.93;6.45;;;;;;;;;;5073545;28;20024;-43
2021/10/23 02:45:11;;;;;;;11.18;5.63;;;;;;;;;;5073393;28;20066;-43
2021/10/23 02:47:38;;;;;;;10.32;3.83;;;;;;;;;;5073548;28;20052;-45
2021/10/23 02:50:05;;;;;;;11.65;5.05;;;;;;;;;;5073344;28;20385;-44
2021/10/23 02:52:31;;;;;;;13.50;6.03;;;;;;;;;;5073324;28;20012;-43
2021/10/23 02:54:58;;;;;;;11.88;5.22;;;;;;;;;;5073363;28;20071;-43
2021/10/23 02:57:24;;;;;;;9.65;3.47;;;;;;;;;;5073322;28;20500;-43
2021/10/23 02:59:50;;;;;;;10.98;4.63;;;;;;;;;;5073377;28;20113;-44
2021/10/23 03:02:16;;;;;;;13.65;6.95;;;;;;;;;;5073403;28;20047;-44
2021/10/23 03:04:42;;;;;;;9.88;3.90;;;;;;;;;;5073404;28;20039;-47
2021/10/23 03:07:11;;;;;;;10.68;4.57;;;;;;;;;;5073414;28;20024;-43
2021/10/23 03:09:37;;;;;;;9.73;4.38;;;;;;;;;;5073169;28;20099;-45
2021/10/23 03:12:03;;;;;;;8.95;5.00;;;;;;;;;;5073161;28;20017;-43
2021/10/23 03:14:29;;;;;;;14.27;5.05;;;;;;;;;;5073188;28;20096;-43
2021/10/23 03:16:55;;;;;;;8.07;3.30;;;;;;;;;;5073172;28;20086;-45
2021/10/23 03:19:24;;;;;;;10.15;4.32;;;;;;;;;;5072845;28;20036;-44
2021/10/23 03:21:50;;;;;;;10.27;4.53;;;;;;;;;;5073077;28;20038;-43
2021/10/23 03:24:16;;;;;;;6.47;3.13;;;;;;;;;;5072870;28;20090;-43
2021/10/23 03:26:44;;;;;;;12.70;5.18;;;;;;;;;;5072930;28;20398;-44
2021/10/23 03:29:10;;;;;;;9.23;3.08;;;;;;;;;;5072968;28;20573;-43
2021/10/23 03:31:37;;;;;;;8.40;2.97;;;;;;;;;;5073028;28;20369;-43
2021/10/23 03:34:03;;;;;;;9.40;3.78;;;;;;;;;;5073100;28;20020;-43
2021/10/23 03:36:29;;;;;;;5.88;2.75;;;;;;;;;;5072824;28;20025;-43
2021/10/23 03:38:55;;;;;;;8.85;3.00;;;;;;;;;;5072824;28;20434;-45
2021/10/23 03:41:21;;;;;;;11.13;3.63;;;;;;;;;;5073080;28;20025;-44
2021/10/23 03:43:47;;;;;;;7.57;3.10;;;;;;;;;;5072957;28;20078;-43
2021/10/23 03:46:13;;;;;;;10.77;4.15;;;;;;;;;;5075702;28;20021;-43
2021/10/23 03:48:39;;;;;;;10.57;3.22;;;;;;;;;;5076786;28;20032;-43
2021/10/23 03:51:05;;;;;;;10.13;3.60;;;;;;;;;;5076776;28;20070;-43
2021/10/23 03:53:31;;;;;;;11.48;3.58;;;;;;;;;;5076662;28;20020;-42
2021/10/23 03:55:57;;;;;;;11.40;4.15;;;;;;;;;;5076835;28;20032;-43
2021/10/23 03:58:23;;;;;;;21.17;6.68;;;;;;;;;;5076715;28;20566;-43
2021/10/23 04:00:50;;;;;;;16.63;8.75;;;;;;;;;;5076419;28;20028;-43
2021/10/23 04:03:16;;;;;;;12.10;5.05;;;;;;;;;;5076548;28;20024;-43
2021/10/23 04:05:44;;;;;;;13.23;5.40;;;;;;;;;;5076342;28;20024;-42
2021/10/23 04:08:10;;;;;;;10.40;4.70;;;;;;;;;;5076203;28;20053;-43
2021/10/23 04:10:39;;;;;;;8.73;4.00;;;;;;;;;;5076550;28;20033;-43
2021/10/23 04:13:05;;;;;;;11.43;3.53;;;;;;;;;;5076200;28;20112;-42
2021/10/23 04:15:32;;;;;;;6.63;2.72;;;;;;;;;;5076316;28;20095;-43
2021/10/23 04:17:58;;;;;;;9.07;3.15;;;;;;;;;;5076225;28;20379;-43
2021/10/23 04:20:25;;;;;;;11.18;3.13;;;;;;;;;;5076070;28;20066;-43
2021/10/23 04:22:53;;;;;;;10.02;3.70;;;;;;;;;;5076144;28;20490;-43
2021/10/23 04:25:20;;;;;;;8.45;3.58;;;;;;;;;;5075816;28;20040;-43
2021/10/23 04:27:46;;;;;;;12.10;4.32;;;;;;;;;;5076485;28;20024;-42
2021/10/23 04:30:13;;;;;;;7.63;3.42;;;;;;;;;;5076126;28;20028;-43
2021/10/23 04:32:39;;;;;;;11.10;3.40;;;;;;;;;;5075903;28;20048;-44
2021/10/23 04:35:06;;;;;;;9.07;3.47;;;;;;;;;;5076013;28;20021;-47
2021/10/23 04:37:32;;;;;;;7.72;3.35;;;;;;;;;;5076187;28;20550;-43
2021/10/23 04:39:58;;;;;;;9.85;4.30;;;;;;;;;;5075708;28;20028;-44
2021/10/23 04:42:24;;;;;;;9.70;4.18;;;;;;;;;;5076219;28;20032;-43
2021/10/23 04:44:50;;;;;;;13.02;2.55;;;;;;;;;;5075893;28;20093;-44
2021/10/23 04:47:16;;;;;;;11.65;3.60;;;;;;;;;;5075772;28;20024;-43
2021/10/23 04:49:42;;;;;;;9.45;3.35;;;;;;;;;;5075588;28;20031;-45
2021/10/23 04:52:08;;;;;;;9.23;3.67;;;;;;;;;;5075537;28;20033;-44
2021/10/23 04:54:34;;;;;;;5.55;2.70;;;;;;;;;;5075429;28;20027;-44
2021/10/23 04:57:00;;;;;;;9.23;2.72;;;;;;;;;;5075331;28;20120;-45
2021/10/23 04:59:26;;;;;;;8.88;2.95;;;;;;;;;;5075532;28;20037;-44
2021/10/23 05:01:52;;;;;;;10.93;3.75;;;;;;;;;;5075361;28;20380;-45
2021/10/23 05:04:19;;;;;;;11.48;3.97;;;;;;;;;;5075355;28;20258;-44
2021/10/23 05:06:45;;;;;;;7.70;3.45;;;;;;;;;;5075386;28;20488;-43
2021/10/23 05:09:11;;;;;;;10.85;4.13;;;;;;;;;;5075264;28;20033;-44
2021/10/23 05:11:37;;;;;;;8.73;3.58;;;;;;;;;;5075372;28;20017;-43
2021/10/23 05:14:03;;;;;;;11.27;3.83;;;;;;;;;;5075366;28;20048;-44
2021/10/23 05:16:29;;;;;;;15.63;6.25;;;;;;;;;;5075021;28;20024;-44
2021/10/23 05:18:55;;;;;;;21.27;8.77;;;;;;;;;;5075099;28;20039;-46
2021/10/23 05:21:23;;;;;;;16.30;6.30;;;;;;;;;;5075071;28;20021;-44
2021/10/23 05:23:52;;;;;;;22.77;8.77;;;;;;;;;;5074938;28;20024;-44
2021/10/23 05:26:18;;;;;;;23.15;11.05;;;;;;;;;;5074834;28;20056;-43
2021/10/23 05:28:44;;;;;;;20.55;8.98;;;;;;;;;;5074933;28;20055;-44
2021/10/23 05:31:10;;;;;;;17.92;8.57;;;;;;;;;;5075036;28;20016;-43
2021/10/23 05:33:36;;;;;;;12.65;5.72;;;;;;;;;;5074923;28;20032;-43
2021/10/23 05:36:03;;;;;;;11.07;4.80;;;;;;;;;;5074779;28;20043;-44
2021/10/23 05:38:29;;;;;;;9.63;4.10;;;;;;;;;;5074689;28;20109;-43
2021/10/23 05:40:55;;;;;;;10.00;4.63;;;;;;;;;;5074600;28;20396;-46
2021/10/23 05:43:21;;;;;;;8.57;3.97;;;;;;;;;;5074748;28;20027;-44
2021/10/23 05:45:48;;;;;;;10.88;3.63;;;;;;;;;;5074718;28;20025;-45
2021/10/23 05:48:14;;;;;;;7.75;4.05;;;;;;;;;;5074434;28;20112;-43
2021/10/23 05:50:41;;;;;;;5.95;2.67;;;;;;;;;;5074551;28;20038;-47
2021/10/23 05:53:09;;;;;;;6.28;3.13;;;;;;;;;;5074932;28;20024;-44
2021/10/23 05:55:35;;;;;;;8.85;3.83;;;;;;;;;;5074551;28;20040;-43
2021/10/23 05:58:02;;;;;;;9.18;3.80;;;;;;;;;;5074347;28;20029;-47
2021/10/23 06:00:29;;;;;;;8.23;3.00;;;;;;;;;;5074471;28;20040;-44
2021/10/23 06:02:56;;;;;;;10.25;3.45;;;;;;;;;;5074144;28;20016;-44
2021/10/23 06:05:23;;;;;;;11.63;4.57;;;;;;;;;;5074057;28;20039;-44
2021/10/23 06:07:50;;;;;;;8.43;4.30;;;;;;;;;;5073570;28;20091;-46
2021/10/23 06:10:16;;;;;;;14.77;5.10;;;;;;;;;;5074147;28;20020;-43
2021/10/23 06:12:42;;;;;;;10.27;4.47;;;;;;;;;;5074112;28;20112;-44
2021/10/23 06:15:09;;;;;;;10.40;5.53;;;;;;;;;;5073998;28;20107;-44
2021/10/23 06:17:35;;;;;;;7.30;3.67;;;;;;;;;;5073815;28;20020;-44
2021/10/23 06:20:02;;;;;;;11.20;4.60;;;;;;;;;;5073734;28;20400;-43
2021/10/23 06:22:28;;;;;;;15.02;6.00;;;;;;;;;;5073780;28;20024;-43
2021/10/23 06:24:54;;;;;;;14.93;4.75;;;;;;;;;;5073550;28;20048;-44
2021/10/23 06:27:20;;;;;;;11.30;4.50;;;;;;;;;;5073637;28;20035;-45
2021/10/23 06:29:49;;;;;;;10.38;3.53;;;;;;;;;;5073676;28;20024;-43
2021/10/23 06:32:15;;;;;;;8.23;4.18;;;;;;;;;;5074194;28;20038;-44
2021/10/23 06:34:41;;;;;;;9.85;3.50;;;;;;;;;;5074053;28;20029;-44
2021/10/23 06:37:09;;;;;;;13.25;5.07;;;;;;;;;;5073542;28;20357;-44
2021/10/23 06:39:35;;;;;;;13.65;4.88;;;;;;;;;;5073528;28;20050;-44
2021/10/23 06:42:01;;;;;;;11.82;5.18;;;;;;;;;;5073571;28;20024;-44
2021/10/23 06:44:27;;;;;;;16.77;5.63;;;;;;;;;;5073715;28;20411;-46
2021/10/23 06:46:53;;;;;;;13.10;5.68;;;;;;;;;;5073444;28;20025;-47
2021/10/23 06:49:19;;;;;;;18.02;5.85;;;;;;;;;;5073592;28;20029;-43
2021/10/23 06:51:45;;;;;;;14.60;8.23;;;;;;;;;;5073341;28;20020;-42
2021/10/23 06:54:12;;;;;;;24.27;7.75;;;;;;;;;;5073151;28;20029;-43
2021/10/23 06:56:38;;;;;;;17.05;7.18;;;;;;;;;;5073540;28;20020;-44
2021/10/23 06:59:04;;;;;;;28.27;8.02;;;;;;;;;;5073199;28;20143;-44
2021/10/23 07:01:31;;;;;;;20.30;7.13;;;;;;;;;;5059736;28;20036;-43
2021/10/23 07:03:57;;;;;;;18.05;7.32;;;;;;;;;;5052837;28;20028;-43
2021/10/23 07:06:23;;;;;;;20.13;6.85;;;;;;;;;;5050120;28;20389;-42
2021/10/23 07:08:49;;;;;;;13.48;7.32;;;;;;;;;;5052830;28;20095;-44
2021/10/23 07:11:16;;;;;;;18.90;9.18;;;;;;;;;;5052550;28;20044;-43
2021/10/23 07:13:42;;;;;;;40.95;24.10;;;;;;;;;;5052534;28;20076;-43
2021/10/23 07:16:08;;;;;;;40.08;19.92;;;;;;;;;;5052657;28;20025;-42
2021/10/23 07:18:34;;;;;;;20.92;10.05;;;;;;;;;;5052663;28;20033;-42
2021/10/23 07:21:00;;;;;;;23.60;9.52;;;;;;;;;;5054923;28;20017;-42
2021/10/23 07:23:26;;;;;;;12.15;4.82;;;;;;;;;;5056868;28;20029;-42
2021/10/23 07:25:52;;;;;;;16.05;8.50;;;;;;;;;;5055114;28;20401;-43
2021/10/23 07:28:18;;;;;;;15.30;6.43;;;;;;;;;;5056721;28;20063;-42
2021/10/23 07:30:44;;;;;;;15.85;8.30;;;;;;;;;;5056805;28;20024;-43
2021/10/23 07:33:10;;;;;;;25.50;11.18;;;;;;;;;;5056808;28;20025;-43
2021/10/23 07:35:36;;;;;;;16.58;8.57;;;;;;;;;;5056614;28;20024;-42
2021/10/23 07:38:03;;;;;;;18.73;7.55;;;;;;;;;;5056513;28;20057;-44
2021/10/23 07:40:29;;;;;;;12.63;5.40;;;;;;;;;;5056476;28;20074;-43
2021/10/23 07:42:55;;;;;;;13.45;6.13;;;;;;;;;;5056415;28;20373;-42
2021/10/23 07:45:28;;;;;;;9.25;4.35;;;;;;;;;;5056579;28;20072;-46
2021/10/23 07:47:58;;;;;;;17.23;8.25;;;;;;;;;;5056303;28;20017;-45
2021/10/23 07:50:24;;;;;;;24.60;10.38;;;;;;;;;;5053693;28;20461;-43
2021/10/23 07:52:52;;;;;;;23.13;11.57;;;;;;;;;;5055098;28;20057;-44
2021/10/23 07:55:18;;;;;;;16.55;7.47;;;;;;;;;;5056319;28;20058;-45
2021/10/23 07:57:44;;;;;;;27.70;13.05;;;;;;;;;;5056254;28;20576;-43
2021/10/23 08:00:11;;;;;;;27.90;9.60;;;;;;;;;;5056244;28;20044;-43
2021/10/23 08:02:49;;;;;;;19.77;8.43;;;;;;;;;;5056234;28;20036;-43
2021/10/23 08:05:16;;;;;;;19.90;9.48;;;;;;;;;;5054905;28;20078;-42
2021/10/23 08:07:43;;;;;;;16.33;5.95;;;;;;;;;;5055317;28;20496;-42
2021/10/23 08:10:09;;;;;;;23.38;9.73;;;;;;;;;;5055469;28;20048;-42
2021/10/23 08:12:35;;;;;;;44.15;21.02;;;;;;;;;;5055629;28;20083;-47
2021/10/23 08:15:03;;;;;;;26.40;12.43;;;;;;;;;;5055970;28;20052;-41
2021/10/23 08:17:29;;;;;;;24.58;9.55;;;;;;;;;;5054664;28;20050;-42
2021/10/23 08:19:55;;;;;;;25.30;11.82;;;;;;;;;;5055768;28;20029;-42
2021/10/23 08:22:22;;;;;;;28.48;12.38;;;;;;;;;;5055574;28;20500;-44
2021/10/23 08:24:48;;;;;;;22.13;8.50;;;;;;;;;;5054180;28;20401;-46
2021/10/23 08:27:15;;;;;;;51.58;25.40;;;;;;;;;;5055551;28;20029;-45
2021/10/23 08:29:42;;;;;;;33.38;18.13;;;;;;;;;;5055723;28;20361;-45
2021/10/23 08:32:08;;;;;;;13.93;7.60;;;;;;;;;;5052848;28;20021;-41
2021/10/23 08:34:34;;;;;;;32.60;16.77;;;;;;;;;;5055958;28;20071;-40
2021/10/23 08:37:00;;;;;;;16.40;8.52;;;;;;;;;;5055751;28;20021;-41
2021/10/23 08:39:26;;;;;;;13.25;6.03;;;;;;;;;;5055634;28;20036;-42
2021/10/23 08:41:52;;;;;;;18.80;6.95;;;;;;;;;;5055883;28;20453;-42
2021/10/23 08:44:19;;;;;;;20.38;7.63;;;;;;;;;;5055903;28;20024;-39
2021/10/23 08:46:45;;;;;;;13.77;5.80;;;;;;;;;;5055694;28;20032;-40
2021/10/23 08:49:12;;;;;;;36.08;19.40;;;;;;;;;;5055702;28;20021;-42
2021/10/23 08:51:38;;;;;;;21.40;9.07;;;;;;;;;;5055386;28;20029;-41
2021/10/23 08:54:04;;;;;;;18.33;7.55;;;;;;;;;;5054414;28;20098;-40
2021/10/23 08:56:31;;;;;;;107.35;9.82;;;;;;;;;;5054410;28;20461;-44
2021/10/23 08:58:57;;;;;;;32.15;11.00;;;;;;;;;;5053809;28;20057;-45
2021/10/23 09:01:23;;;;;;;25.83;10.45;;;;;;;;;;5054346;28;20028;-46
2021/10/23 09:03:49;;;;;;;19.05;7.18;;;;;;;;;;5054298;28;20017;-46
2021/10/23 09:06:29;;;;;;;20.33;7.60;;;;;;;;;;5055356;28;20391;-46
2021/10/23 09:08:59;;;;;;;22.77;10.07;;;;;;;;;;5055357;28;20388;-45
2021/10/23 09:11:36;;;;;;;28.73;14.98;;;;;;;;;;5055313;28;20056;-46
2021/10/23 09:14:20;;;;;;;35.20;12.07;;;;;;;;;;5055510;28;20025;-45
2021/10/23 09:16:47;;;;;;;28.40;11.55;;;;;;;;;;5055284;28;20056;-48
2021/10/23 09:19:13;;;;;;;27.90;11.52;;;;;;;;;;5054784;28;20422;-46
2021/10/23 09:21:40;;;;;;;24.70;10.05;;;;;;;;;;5054400;28;20025;-44
2021/10/23 09:24:22;;;;;;;18.58;6.47;;;;;;;;;;5053327;28;20099;-45
2021/10/23 09:26:50;;;;;;;30.45;15.68;;;;;;;;;;5051860;28;20489;-45
2021/10/23 09:29:20;;;;;;;28.38;12.93;;;;;;;;;;5053844;28;20036;-45
2021/10/23 09:31:50;;;;;;;25.52;11.05;;;;;;;;;;5051111;28;20024;-46
2021/10/23 09:34:20;;;;;;;38.90;23.38;;;;;;;;;;5054379;28;20404;-46
2021/10/23 09:36:56;;;;;;;25.63;12.07;;;;;;;;;;5051831;28;20017;-46
2021/10/23 09:39:31;;;;;;;38.28;20.05;;;;;;;;;;5053655;28;20039;-45
2021/10/23 09:42:07;;;;;;;29.50;15.73;;;;;;;;;;5053617;28;20017;-45
2021/10/23 09:44:36;;;;;;;47.47;26.20;;;;;;;;;;5051770;28;20047;-45
2021/10/23 09:47:05;;;;;;;79.60;41.55;;;;;;;;;;5053394;28;20021;-46
2021/10/23 09:49:31;;;;;;;65.03;36.40;;;;;;;;;;5053721;28;20028;-45
2021/10/23 09:52:08;;;;;;;71.40;35.13;;;;;;;;;;5053987;28;20447;-46
2021/10/23 09:54:40;;;;;;;20.75;9.73;;;;;;;;;;5052259;28;20021;-46
2021/10/23 09:57:10;;;;;;;50.10;27.13;;;;;;;;;;5053440;28;20047;-46
2021/10/23 09:59:39;;;;;;;60.78;31.48;;;;;;;;;;5053785;28;20125;-45
2021/10/23 10:02:06;;;;;;;48.90;26.83;;;;;;;;;;5050502;28;20017;-46
2021/10/23 10:04:33;;;;;;;36.42;20.42;;;;;;;;;;5053661;28;20017;-46
2021/10/23 10:07:04;;;;;;;88.47;32.15;;;;;;;;;;5053368;28;20028;-46
2021/10/23 10:09:30;;;;;;;52.38;25.95;;;;;;;;;;5051594;28;20112;-46
2021/10/23 10:11:57;;;;;;;41.28;20.42;;;;;;;;;;5022969;28;20040;-46
2021/10/23 10:14:26;;;;;;;62.80;32.97;;;;;;;;;;5019201;28;20022;-44
2021/10/23 10:16:57;;;;;;;34.97;17.52;;;;;;;;;;5019297;28;20040;-47
2021/10/23 10:19:23;;;;;;;25.02;12.95;;;;;;;;;;5018767;28;20193;-46
2021/10/23 10:21:52;;;;;;;51.67;23.75;;;;;;;;;;5018050;28;20030;-48
2021/10/23 10:24:25;;;;;;;51.40;26.55;;;;;;;;;;5018167;28;20163;-49
2021/10/23 10:27:09;;;;;;;40.53;18.30;;;;;;;;;;5018415;28;20029;-46
2021/10/23 10:29:48;;;;;;;56.47;28.58;;;;;;;;;;5019060;28;20125;-48
2021/10/23 10:32:28;;;;;;;35.33;15.60;;;;;;;;;;5018140;28;20056;-48
2021/10/23 10:35:43;;;;;;;36.85;17.60;;;;;;;;;;5018570;28;20427;-47
2021/10/23 10:44:13;;;;;;;37.78;19.25;;;;;;;;;;5022394;28;20075;-47
2021/10/23 10:47:09;;;;;;;20.85;10.77;;;;;;;;;;5022297;28;20496;-51
2021/10/23 10:49:42;;;;;;;29.75;14.40;;;;;;;;;;4927345;28;20263;-45
2021/10/23 10:52:26;;;;;;;26.45;13.52;;;;;;;;;;4926930;29;20066;-45
2021/10/23 10:55:14;;;;;;;25.33;11.88;;;;;;;;;;4926805;28;20051;-45
2021/10/23 10:58:00;;;;;;;20.15;10.18;;;;;;;;;;4926440;29;20047;-45
2021/10/23 11:00:45;;;;;;;26.50;12.85;;;;;;;;;;4927143;29;20122;-44
2021/10/23 11:03:30;;;;;;;25.42;10.98;;;;;;;;;;4926539;29;20182;-45
2021/10/23 11:05:56;;;;;;;21.63;9.30;;;;;;;;;;4927321;28;20046;-45
2021/10/23 11:08:24;;;;;;;23.08;12.95;;;;;;;;;;4926547;28;20523;-44
2021/10/23 11:10:56;;;;;;;22.30;11.40;;;;;;;;;;4926454;28;20035;-45
2021/10/23 11:13:28;;;;;;;25.70;13.68;;;;;;;;;;4884676;29;20039;-46
2021/10/23 11:15:55;;;;;;;25.77;11.98;;;;;;;;;;4889853;28;20864;-45
2021/10/23 11:18:23;;;;;;;20.58;10.73;;;;;;;;;;4936763;28;20050;-45
2021/10/23 11:20:53;;;;;;;28.02;15.77;;;;;;;;;;4936205;28;20086;-45
2021/10/23 11:23:22;;;;;;;17.42;8.20;;;;;;;;;;4937461;28;20030;-44
2021/10/23 11:25:49;;;;;;;44.28;25.13;;;;;;;;;;4964320;28;20045;-45
2021/10/23 11:28:15;;;;;;;39.88;19.27;;;;;;;;;;5018020;28;20025;-45
2021/10/23 11:30:43;;;;;;;36.20;16.95;;;;;;;;;;5017771;28;20132;-44
2021/10/23 11:33:10;;;;;;;39.83;19.30;;;;;;;;;;5017715;28;20894;-45
2021/10/23 11:35:46;;;;;;;34.55;16.83;;;;;;;;;;5018062;28;20044;-45
2021/10/23 11:38:32;;;;;;;24.58;11.23;;;;;;;;;;5017983;28;20025;-44
2021/10/23 11:40:59;;;;;;;25.27;12.40;;;;;;;;;;5017342;28;20048;-46
2021/10/23 11:43:26;;;;;;;46.92;27.58;;;;;;;;;;5039181;28;20020;-46
2021/10/23 11:45:52;;;;;;;24.23;12.43;;;;;;;;;;5052711;28;20021;-45
2021/10/23 11:48:19;;;;;;;21.40;10.73;;;;;;;;;;5052346;28;20021;-47
2021/10/23 11:50:54;;;;;;;54.35;30.85;;;;;;;;;;5052549;28;20029;-45
2021/10/23 11:53:30;;;;;;;59.60;28.52;;;;;;;;;;5052514;28;20032;-47
2021/10/23 11:56:01;;;;;;;44.10;23.00;;;;;;;;;;5052496;28;20021;-46
2021/10/23 11:58:28;;;;;;;21.60;11.90;;;;;;;;;;5052790;28;20138;-46
2021/10/23 12:01:04;;;;;;;35.08;19.48;;;;;;;;;;5051887;28;20116;-47
2021/10/23 12:03:30;;;;;;;29.55;15.32;;;;;;;;;;5052397;28;20508;-45
2021/10/23 12:05:57;;;;;;;30.65;14.27;;;;;;;;;;5053044;28;20017;-47
2021/10/23 12:08:28;;;;;;;20.33;9.25;;;;;;;;;;5055786;28;20028;-44
2021/10/23 12:11:19;;;;;;;33.10;13.35;;;;;;;;;;5054652;28;20013;-45
2021/10/23 12:13:48;;;;;;;32.70;17.88;;;;;;;;;;5053499;28;20039;-45
2021/10/23 12:16:15;;;;;;;28.50;13.38;;;;;;;;;;5054793;28;20017;-44
2021/10/23 12:18:45;;;;;;;21.35;10.43;;;;;;;;;;5054811;28;20472;-44
2021/10/23 12:21:19;;;;;;;25.52;12.32;;;;;;;;;;5054719;28;20041;-45
2021/10/23 12:23:49;;;;;;;26.23;11.98;;;;;;;;;;5054026;28;20033;-46
2021/10/23 12:26:18;;;;;;;14.07;7.57;;;;;;;;;;5054856;28;20045;-46
2021/10/23 12:29:03;;;;;;;23.27;11.50;;;;;;;;;;5055284;28;20039;-47
2021/10/23 12:31:49;;;;;;;17.23;7.53;;;;;;;;;;5052800;28;20104;-46
2021/10/23 12:34:15;;;;;;;24.08;10.18;;;;;;;;;;5053053;28;20028;-46
2021/10/23 12:36:58;;;;;;;23.92;13.35;;;;;;;;;;5055784;28;20516;-47
2021/10/23 12:39:30;;;;;;;22.17;9.93;;;;;;;;;;5054536;28;20033;-47
2021/10/23 12:41:56;;;;;;;29.70;12.55;;;;;;;;;;5055573;28;20028;-49
2021/10/23 12:44:24;;;;;;;27.02;13.48;;;;;;;;;;5055499;28;20029;-46
2021/10/23 12:46:51;;;;;;;26.88;14.93;;;;;;;;;;5054116;28;20067;-46
2021/10/23 12:49:17;;;;;;;28.50;15.52;;;;;;;;;;5055238;28;20017;-46
2021/10/23 12:51:44;;;;;;;29.83;15.65;;;;;;;;;;5054856;28;20021;-46
2021/10/23 12:54:13;;;;;;;25.73;13.25;;;;;;;;;;5054514;28;20025;-46
2021/10/23 12:56:42;;;;;;;47.85;21.45;;;;;;;;;;5053954;28;20401;-47
2021/10/23 12:59:08;;;;;;;35.17;17.58;;;;;;;;;;5052956;28;20043;-47
2021/10/23 13:01:35;;;;;;;24.35;12.00;;;;;;;;;;5054665;28;20025;-46
2021/10/23 13:04:01;;;;;;;24.35;10.73;;;;;;;;;;5053725;28;20037;-46
2021/10/23 13:06:27;;;;;;;25.30;12.95;;;;;;;;;;5054412;28;20477;-46
2021/10/23 13:08:54;;;;;;;29.45;15.57;;;;;;;;;;5054072;28;20021;-46
2021/10/23 13:11:20;;;;;;;38.33;21.13;;;;;;;;;;5055192;28;20469;-46
2021/10/23 13:13:46;;;;;;;27.08;13.57;;;;;;;;;;5055209;28;20468;-47
2021/10/23 13:16:13;;;;;;;26.98;11.20;;;;;;;;;;5055126;28;20031;-47
2021/10/23 13:18:39;;;;;;;22.55;10.32;;;;;;;;;;5053711;28;20086;-46
2021/10/23 13:21:05;;;;;;;26.95;13.02;;;;;;;;;;5055090;28;20037;-46
2021/10/23 13:23:31;;;;;;;50.72;24.95;;;;;;;;;;5054378;28;20362;-46
2021/10/23 13:25:58;;;;;;;29.80;13.73;;;;;;;;;;5054634;28;20045;-46
2021/10/23 13:28:24;;;;;;;24.83;13.52;;;;;;;;;;5054868;28;20021;-47
2021/10/23 13:30:50;;;;;;;30.83;13.43;;;;;;;;;;5054875;28;20397;-47
2021/10/23 13:33:17;;;;;;;34.60;17.88;;;;;;;;;;5054649;28;20028;-47
2021/10/23 13:35:43;;;;;;;36.35;20.38;;;;;;;;;;5054668;28;20508;-46
2021/10/23 13:38:09;;;;;;;27.90;12.68;;;;;;;;;;5054741;28;20036;-45
2021/10/23 13:40:35;;;;;;;22.85;10.10;;;;;;;;;;5054538;28;20037;-45
2021/10/23 13:43:01;;;;;;;37.88;19.20;;;;;;;;;;5053369;28;20155;-44
2021/10/23 13:45:27;;;;;;;28.17;14.00;;;;;;;;;;5054441;28;20150;-45
2021/10/23 13:47:53;;;;;;;32.42;15.88;;;;;;;;;;5054445;28;20032;-46
2021/10/23 13:50:19;;;;;;;32.65;16.20;;;;;;;;;;5054358;28;20120;-46
2021/10/23 13:52:48;;;;;;;24.27;8.75;;;;;;;;;;5054484;28;20028;-46
2021/10/23 13:55:14;;;;;;;57.60;25.13;;;;;;;;;;5054399;28;20021;-47
2021/10/23 13:57:40;;;;;;;25.23;12.57;;;;;;;;;;5053150;28;20025;-46
2021/10/23 14:00:09;;;;;;;29.48;12.10;;;;;;;;;;5054094;28;20029;-48
2021/10/23 14:02:37;;;;;;;63.55;27.67;;;;;;;;;;5054384;28;20047;-48
2021/10/23 14:05:04;;;;;;;25.90;11.95;;;;;;;;;;5054127;28;20025;-48
2021/10/23 14:07:30;;;;;;;35.60;18.08;;;;;;;;;;5054190;28;20021;-47
2021/10/23 14:09:56;;;;;;;30.95;15.80;;;;;;;;;;5054152;28;20104;-46
2021/10/23 14:12:22;;;;;;;27.38;14.00;;;;;;;;;;5054137;28;20052;-47
2021/10/23 14:14:48;;;;;;;31.10;13.15;;;;;;;;;;5054291;28;20083;-46
2021/10/23 14:17:14;;;;;;;24.73;10.77;;;;;;;;;;5054071;28;20028;-47
2021/10/23 14:19:41;;;;;;;18.77;9.43;;;;;;;;;;5053815;28;20159;-47
2021/10/23 14:22:11;;;;;;;17.73;8.70;;;;;;;;;;5052834;28;20452;-46
2021/10/23 14:24:38;;;;;;;29.70;15.63;;;;;;;;;;5053792;28;20069;-46
2021/10/23 14:27:11;;;;;;;19.25;10.77;;;;;;;;;;5053830;28;20029;-46
2021/10/23 14:29:38;;;;;;;22.17;10.48;;;;;;;;;;5053469;28;20032;-46
2021/10/23 14:32:04;;;;;;;21.40;9.35;;;;;;;;;;5052828;28;20362;-47
2021/10/23 14:34:31;;;;;;;24.25;10.73;;;;;;;;;;5053738;28;20500;-46
2021/10/23 14:36:57;;;;;;;21.20;9.52;;;;;;;;;;5053754;28;20024;-47